createdAt,value
2022-09-23T00:00:26.028Z,7.70
2022-09-23T00:03:30.669Z,6.67
2022-09-23T00:06:33.767Z,6.73
2022-09-23T00:09:37.742Z,5.63
2022-09-23T00:12:40.484Z,5.90
2022-09-23T00:15:43.114Z,7.40
2022-09-23T00:18:46.582Z,7.73
2022-09-23T00:21:49.310Z,7.03
2022-09-23T00:24:53.348Z,7.47
2022-09-23T00:27:56.150Z,11.13
2022-09-23T00:31:02.572Z,12.17
2022-09-23T00:34:05.304Z,10.90
2022-09-23T00:37:07.994Z,14.00
2022-09-23T00:40:13.234Z,16.60
2022-09-23T00:43:17.610Z,12.33
2022-09-23T00:46:24.306Z,18.57
2022-09-23T00:49:31.612Z,15.30
2022-09-23T00:52:35.185Z,14.63
2022-09-23T00:55:43.785Z,8.03
2022-09-23T00:58:48.425Z,8.90
2022-09-23T01:01:54.853Z,9.03
2022-09-23T01:04:58.041Z,13.47
2022-09-23T01:08:03.740Z,11.73
2022-09-23T01:11:19.225Z,8.77
2022-09-23T01:14:36.751Z,12.47
2022-09-23T01:17:45.289Z,8.80
2022-09-23T01:21:25.450Z,10.47
2022-09-23T01:24:48.659Z,9.07
2022-09-23T01:28:13.122Z,7.13
2022-09-23T01:31:24.101Z,8.80
2022-09-23T01:34:35.533Z,7.73
2022-09-23T01:37:52.954Z,9.10
2022-09-23T01:41:04.576Z,13.63
2022-09-23T01:44:12.049Z,16.13
2022-09-23T01:47:19.831Z,8.70
2022-09-23T01:50:46.435Z,9.53
2022-09-23T01:53:55.423Z,10.73
2022-09-23T01:57:04.428Z,12.80
2022-09-23T02:00:12.180Z,16.20
2022-09-23T02:03:20.223Z,9.63
2022-09-23T02:06:27.460Z,12.73
2022-09-23T02:09:36.175Z,13.47
2022-09-23T02:12:43.096Z,14.53
2022-09-23T02:15:50.422Z,8.23
2022-09-23T02:18:58.545Z,9.30
2022-09-23T02:22:06.337Z,8.33
2022-09-23T02:25:11.978Z,13.73
2022-09-23T02:28:19.570Z,10.97
2022-09-23T02:31:30.929Z,12.37
2022-09-23T02:34:45.822Z,12.17
2022-09-23T02:37:56.561Z,11.23
2022-09-23T02:41:05.463Z,8.17
2022-09-23T02:44:11.151Z,14.23
2022-09-23T02:47:14.266Z,10.77
2022-09-23T02:50:19.328Z,16.87
2022-09-23T02:53:24.119Z,8.87
2022-09-23T02:56:27.325Z,20.13
2022-09-23T02:59:33.048Z,13.83
2022-09-23T03:02:51.566Z,12.40
2022-09-23T03:05:59.557Z,17.30
2022-09-23T03:09:10.495Z,15.73
2022-09-23T03:12:20.208Z,14.67
2022-09-23T03:15:28.484Z,13.77
2022-09-23T03:18:36.992Z,15.17
2022-09-23T03:21:48.025Z,18.37
2022-09-23T03:24:54.126Z,12.37
2022-09-23T03:27:58.580Z,14.53
2022-09-23T03:31:01.892Z,16.00
2022-09-23T03:34:09.838Z,14.40
2022-09-23T03:37:19.372Z,6.90
2022-09-23T03:40:25.177Z,15.70
2022-09-23T03:43:28.452Z,12.93
2022-09-23T03:46:33.978Z,21.80
2022-09-23T03:49:40.098Z,14.80
2022-09-23T03:52:44.731Z,16.87
2022-09-23T03:55:48.601Z,15.33
2022-09-23T03:58:51.224Z,17.47
2022-09-23T04:01:54.590Z,14.67
2022-09-23T04:04:57.664Z,12.90
2022-09-23T04:08:02.442Z,13.50
2022-09-23T04:11:06.066Z,13.07
2022-09-23T04:14:09.391Z,14.10
2022-09-23T04:17:13.418Z,14.17
2022-09-23T04:20:19.045Z,11.97
2022-09-23T04:23:23.391Z,14.07
2022-09-23T04:26:26.472Z,15.40
2022-09-23T04:29:29.131Z,17.60
2022-09-23T04:32:32.177Z,23.47
2022-09-23T04:35:38.002Z,14.10
2022-09-23T04:38:46.411Z,7.90
2022-09-23T04:41:49.044Z,7.63
2022-09-23T04:44:52.105Z,17.47
2022-09-23T04:47:55.872Z,10.50
2022-09-23T04:51:04.063Z,25.80
2022-09-23T04:54:08.079Z,14.50
2022-09-23T04:57:11.475Z,14.50
2022-09-23T05:00:15.256Z,13.33
2022-09-23T05:03:18.486Z,12.43
2022-09-23T05:06:21.974Z,8.77
2022-09-23T05:09:26.488Z,17.67
2022-09-23T05:12:29.764Z,13.93
2022-09-23T05:15:32.398Z,13.50
2022-09-23T05:18:36.433Z,9.43
2022-09-23T05:21:39.111Z,12.53
2022-09-23T05:24:43.213Z,16.83
2022-09-23T05:27:45.863Z,13.10
2022-09-23T05:30:48.557Z,18.23
2022-09-23T05:33:53.171Z,10.13
2022-09-23T05:36:55.844Z,5.87
2022-09-23T05:39:59.880Z,12.57
2022-09-23T05:43:03.001Z,9.37
2022-09-23T05:46:08.488Z,21.37
2022-09-23T05:49:12.125Z,15.27
2022-09-23T05:52:14.950Z,3.93
2022-09-23T05:55:19.335Z,7.73
2022-09-23T05:58:23.560Z,21.60
2022-09-23T06:01:28.026Z,21.50
2022-09-23T06:04:31.051Z,15.60
2022-09-23T06:07:33.716Z,3.63
2022-09-23T06:10:39.622Z,19.40
2022-09-23T06:13:42.877Z,14.30
2022-09-23T06:16:46.204Z,18.73
2022-09-23T06:19:48.900Z,7.77
2022-09-23T06:22:54.799Z,7.20
2022-09-23T06:26:02.786Z,15.07
2022-09-23T06:29:11.483Z,6.87
2022-09-23T06:32:14.149Z,13.03
2022-09-23T06:35:25.928Z,18.17
2022-09-23T06:38:30.591Z,16.07
2022-09-23T06:41:34.585Z,15.40
2022-09-23T06:44:37.330Z,11.13
2022-09-23T06:47:40.156Z,18.70
2022-09-23T06:50:43.215Z,23.40
2022-09-23T06:53:49.261Z,18.07
2022-09-23T06:56:53.584Z,15.10
2022-09-23T06:59:56.901Z,14.67
2022-09-23T07:03:00.181Z,10.83
2022-09-23T07:06:04.543Z,4.90
2022-09-23T07:09:08.864Z,25.53
2022-09-23T07:12:13.584Z,18.73
2022-09-23T07:15:16.797Z,18.20
2022-09-23T07:18:19.644Z,23.23
2022-09-23T07:21:22.336Z,6.03
2022-09-23T07:24:25.419Z,7.20
2022-09-23T07:27:29.472Z,7.77
2022-09-23T07:30:32.292Z,10.87
2022-09-23T07:33:35.881Z,10.63
2022-09-23T07:36:40.804Z,6.30
2022-09-23T07:39:43.965Z,15.83
2022-09-23T07:42:48.073Z,15.27
2022-09-23T07:45:51.975Z,21.93
2022-09-23T07:48:55.117Z,12.37
2022-09-23T07:51:57.986Z,11.83
2022-09-23T07:55:00.783Z,12.73
2022-09-23T07:58:04.822Z,14.37
2022-09-23T08:01:09.160Z,16.93
2022-09-23T08:04:14.445Z,12.27
2022-09-23T08:07:17.596Z,10.87
2022-09-23T08:10:21.109Z,7.40
2022-09-23T08:13:25.044Z,9.57
2022-09-23T08:16:27.752Z,7.37
2022-09-23T08:19:30.381Z,5.80
2022-09-23T08:22:32.994Z,10.30
2022-09-23T08:25:35.643Z,10.17
2022-09-23T08:28:41.040Z,5.63
2022-09-23T08:31:43.935Z,6.43
2022-09-23T08:34:46.665Z,3.60
2022-09-23T08:37:49.293Z,5.90
2022-09-23T08:40:52.274Z,7.47
2022-09-23T08:44:02.877Z,3.90
2022-09-23T08:47:15.122Z,11.87
2022-09-23T08:50:21.310Z,6.37
2022-09-23T08:53:27.390Z,10.23
2022-09-23T08:56:30.976Z,6.93
2022-09-23T08:59:41.509Z,5.70
2022-09-23T09:02:44.260Z,9.53
2022-09-23T09:05:54.176Z,7.23
2022-09-23T09:09:00.915Z,5.83
2022-09-23T09:12:15.394Z,6.33
2022-09-23T09:15:24.666Z,6.63
2022-09-23T09:18:33.483Z,3.07
2022-09-23T09:21:42.515Z,6.57
2022-09-23T09:24:49.053Z,4.37
2022-09-23T09:27:53.147Z,5.23
2022-09-23T09:31:00.787Z,7.50
2022-09-23T09:34:07.973Z,6.33
2022-09-23T09:37:19.948Z,10.93
2022-09-23T09:40:22.701Z,11.97
2022-09-23T09:43:25.568Z,9.63
2022-09-23T09:46:45.223Z,7.13
2022-09-23T09:49:52.611Z,5.20
2022-09-23T09:53:16.225Z,4.23
2022-09-23T09:56:22.974Z,3.67
2022-09-23T09:59:29.270Z,5.57
2022-09-23T10:02:38.002Z,4.87
2022-09-23T10:05:49.707Z,6.27
2022-09-23T10:09:12.074Z,7.57
2022-09-23T10:12:18.817Z,5.73
2022-09-23T10:15:31.270Z,3.93
2022-09-23T10:18:38.390Z,7.17
2022-09-23T10:21:42.700Z,2.87
2022-09-23T10:24:50.544Z,4.87
2022-09-23T10:27:53.267Z,4.03
2022-09-23T10:31:06.338Z,5.40
2022-09-23T10:34:25.126Z,2.97
2022-09-23T10:37:38.685Z,4.87
2022-09-23T10:41:01.043Z,5.13
2022-09-23T10:44:46.069Z,8.00
2022-09-23T10:47:59.158Z,3.87
2022-09-23T10:51:08.171Z,3.40
2022-09-23T10:54:21.571Z,9.27
2022-09-23T10:57:40.793Z,1.03
2022-09-23T11:00:51.832Z,4.93
2022-09-23T11:04:12.004Z,3.60
2022-09-23T11:07:24.085Z,8.60
2022-09-23T11:10:52.032Z,4.73
2022-09-23T11:14:20.268Z,4.30
2022-09-23T11:17:46.070Z,4.37
2022-09-23T11:21:00.428Z,4.60
2022-09-23T11:24:23.268Z,4.37
2022-09-23T11:27:36.329Z,5.43
2022-09-23T11:30:50.236Z,4.47
2022-09-23T11:34:08.702Z,3.97
2022-09-23T11:37:16.267Z,6.43
2022-09-23T11:40:24.586Z,2.97
2022-09-23T11:43:29.777Z,6.83
2022-09-23T11:46:38.700Z,5.70
2022-09-23T11:49:48.485Z,4.37
2022-09-23T11:52:58.701Z,3.93
2022-09-23T11:56:07.143Z,3.60
2022-09-23T11:59:16.901Z,3.70
2022-09-23T12:02:30.605Z,4.17
2022-09-23T12:05:37.853Z,4.97
2022-09-23T12:08:40.698Z,5.03
2022-09-23T12:11:54.553Z,8.03
2022-09-23T12:15:04.017Z,7.10
2022-09-23T12:18:23.513Z,8.00
2022-09-23T12:21:51.807Z,9.53
2022-09-23T12:25:00.588Z,3.27
2022-09-23T12:28:07.617Z,3.13
2022-09-23T12:31:13.696Z,3.30
2022-09-23T12:34:24.355Z,1.80
2022-09-23T12:37:29.619Z,5.33
2022-09-23T12:40:35.595Z,5.60
2022-09-23T12:43:53.837Z,7.47
2022-09-23T12:47:28.106Z,6.93
2022-09-23T12:50:51.501Z,5.80
2022-09-23T12:53:59.672Z,3.17
2022-09-23T12:57:05.405Z,7.57
2022-09-23T13:00:32.184Z,14.60
2022-09-23T13:03:54.439Z,5.20
2022-09-23T13:06:59.887Z,3.40
2022-09-23T13:10:12.826Z,7.20
2022-09-23T13:13:25.417Z,6.47
2022-09-23T13:16:33.477Z,5.80
2022-09-23T13:19:47.371Z,2.90
2022-09-23T13:23:17.751Z,1.70
2022-09-23T13:26:20.534Z,3.63
2022-09-23T13:29:27.627Z,6.30
2022-09-23T13:32:33.989Z,3.83
2022-09-23T13:35:38.397Z,2.50
2022-09-23T13:38:42.408Z,3.70
2022-09-23T13:41:46.257Z,2.53
2022-09-23T13:44:49.256Z,4.30
2022-09-23T13:47:55.930Z,3.90
2022-09-23T13:50:59.161Z,4.43
2022-09-23T13:54:04.148Z,7.47
2022-09-23T13:57:07.093Z,9.43
2022-09-23T14:00:18.689Z,3.20
2022-09-23T14:03:36.108Z,3.20
2022-09-23T14:06:42.134Z,5.40
2022-09-23T14:09:47.993Z,2.50
2022-09-23T14:12:52.436Z,4.33
2022-09-23T14:15:58.386Z,5.80
2022-09-23T14:19:02.987Z,5.40
2022-09-23T14:22:12.295Z,2.13
2022-09-23T14:25:17.829Z,5.30
2022-09-23T14:28:23.628Z,5.73
2022-09-23T14:31:26.563Z,3.17
2022-09-23T14:34:48.294Z,2.97
2022-09-23T14:38:12.541Z,1.67
2022-09-23T14:41:21.794Z,4.57
2022-09-23T14:44:28.024Z,3.07
2022-09-23T14:47:31.106Z,6.10
2022-09-23T14:50:39.831Z,2.23
2022-09-23T14:53:45.659Z,1.87
2022-09-23T14:56:48.454Z,2.10
2022-09-23T14:59:54.503Z,6.90
2022-09-23T15:03:02.827Z,2.83
2022-09-23T15:06:09.970Z,2.40
2022-09-23T15:09:20.110Z,3.10
2022-09-23T15:12:23.316Z,5.67
2022-09-23T15:15:29.147Z,3.07
2022-09-23T15:18:35.850Z,3.67
2022-09-23T15:21:43.101Z,4.43
2022-09-23T15:24:47.150Z,4.53
2022-09-23T15:27:58.093Z,2.83
2022-09-23T15:31:01.137Z,2.53
2022-09-23T15:34:05.394Z,2.83
2022-09-23T15:37:12.409Z,3.33
2022-09-23T15:40:19.301Z,3.80
2022-09-23T15:43:24.976Z,2.97
2022-09-23T15:46:29.151Z,2.37
2022-09-23T15:49:36.129Z,4.63
2022-09-23T15:52:41.499Z,7.83
2022-09-23T15:55:44.608Z,7.53
2022-09-23T15:58:47.818Z,9.20
2022-09-23T16:01:52.338Z,9.43
2022-09-23T16:04:55.320Z,3.77
2022-09-23T16:08:02.806Z,4.40
2022-09-23T16:11:18.663Z,3.57
2022-09-23T16:14:21.381Z,4.53
2022-09-23T16:17:25.199Z,4.87
2022-09-23T16:20:30.884Z,8.73
2022-09-23T16:23:40.478Z,5.00
2022-09-23T16:26:43.936Z,4.70
2022-09-23T16:29:46.650Z,7.77
2022-09-23T16:32:51.603Z,5.63
2022-09-23T16:35:54.579Z,2.50
2022-09-23T16:38:59.605Z,3.17
2022-09-23T16:42:03.002Z,3.60
2022-09-23T16:45:06.659Z,6.03
2022-09-23T16:48:11.374Z,7.43
2022-09-23T16:51:16.931Z,6.10
2022-09-23T16:54:22.827Z,4.27
2022-09-23T16:57:25.496Z,7.73
2022-09-23T17:00:54.189Z,9.60
2022-09-23T17:03:56.893Z,6.43
2022-09-23T17:06:59.780Z,5.60
2022-09-23T17:10:04.933Z,6.83
2022-09-23T17:13:08.199Z,9.97
2022-09-23T17:16:11.834Z,6.23
2022-09-23T17:19:14.687Z,7.73
2022-09-23T17:22:17.364Z,8.13
2022-09-23T17:25:21.410Z,10.10
2022-09-23T17:28:24.294Z,12.10
2022-09-23T17:31:27.440Z,8.80
2022-09-23T17:34:33.360Z,16.20
2022-09-23T17:37:36.223Z,16.63
2022-09-23T17:40:41.570Z,13.50
2022-09-23T17:43:45.396Z,15.83
2022-09-23T17:46:49.343Z,9.20
2022-09-23T17:49:52.157Z,11.00
2022-09-23T17:52:54.797Z,14.00
2022-09-23T17:56:01.070Z,11.53
2022-09-23T17:59:04.249Z,14.57
2022-09-23T18:02:07.225Z,11.37
2022-09-23T18:05:10.492Z,6.63
2022-09-23T18:08:13.217Z,13.47
2022-09-23T18:11:19.665Z,9.73
2022-09-23T18:14:23.872Z,11.70
2022-09-23T18:17:26.741Z,12.33
2022-09-23T18:20:29.504Z,8.93
2022-09-23T18:23:32.166Z,17.67
2022-09-23T18:26:36.357Z,14.13
2022-09-23T18:29:39.082Z,11.33
2022-09-23T18:32:41.738Z,27.30
2022-09-23T18:35:44.574Z,10.10
2022-09-23T18:38:49.385Z,8.53
2022-09-23T18:41:53.649Z,9.73
2022-09-23T18:44:57.113Z,8.43
2022-09-23T18:48:17.705Z,8.03
2022-09-23T18:51:23.893Z,14.50
2022-09-23T18:54:28.335Z,13.20
2022-09-23T18:57:32.590Z,9.20
2022-09-23T19:00:36.239Z,11.77
2022-09-23T19:03:39.857Z,9.27
2022-09-23T19:06:42.546Z,6.87
2022-09-23T19:09:45.749Z,7.60
2022-09-23T19:12:49.726Z,15.60
2022-09-23T19:15:52.439Z,7.27
2022-09-23T19:18:55.401Z,8.43
2022-09-23T19:21:58.048Z,12.73
2022-09-23T19:25:00.703Z,7.57
2022-09-23T19:28:05.501Z,7.30
2022-09-23T19:31:12.473Z,12.77
2022-09-23T19:34:17.811Z,10.77
2022-09-23T19:37:21.066Z,12.03
2022-09-23T19:40:23.814Z,9.70
2022-09-23T19:43:28.020Z,21.97
2022-09-23T19:46:32.361Z,8.23
2022-09-23T19:49:35.663Z,11.20
2022-09-23T19:52:38.587Z,8.73
2022-09-23T19:55:42.936Z,9.00
2022-09-23T19:58:48.628Z,9.37
2022-09-23T20:01:51.326Z,11.97
2022-09-23T20:04:53.983Z,9.63
2022-09-23T20:07:58.942Z,8.40
2022-09-23T20:11:10.150Z,11.37
2022-09-23T20:14:14.975Z,15.37
2022-09-23T20:17:19.255Z,10.00
2022-09-23T20:20:22.214Z,23.33
2022-09-23T20:23:24.926Z,22.27
2022-09-23T20:26:45.186Z,34.43
2022-09-23T20:29:50.095Z,18.77
2022-09-23T20:32:53.488Z,20.13
2022-09-23T20:35:56.776Z,20.33
2022-09-23T20:39:00.971Z,42.57
2022-09-23T20:42:03.812Z,27.27
2022-09-23T20:45:09.319Z,19.87
2022-09-23T20:48:11.958Z,46.90
2022-09-23T20:51:14.590Z,56.90
2022-09-23T20:54:18.935Z,64.97
2022-09-23T20:57:21.579Z,20.10
2022-09-23T21:00:25.572Z,57.93
2022-09-23T21:03:29.612Z,25.33
2022-09-23T21:06:32.383Z,19.47
2022-09-23T21:09:35.247Z,45.80
2022-09-23T21:12:37.969Z,58.63
2022-09-23T21:15:41.962Z,25.00
2022-09-23T21:18:45.268Z,24.47
2022-09-23T21:21:47.976Z,21.97
2022-09-23T21:25:26.198Z,24.03
2022-09-23T21:28:13.351Z,15.73
2022-09-23T21:31:26.923Z,21.80
2022-09-23T21:34:32.747Z,33.90
2022-09-23T21:37:35.534Z,51.20
2022-09-23T21:40:56.106Z,16.87
2022-09-23T21:44:00.309Z,15.17
2022-09-23T21:47:04.485Z,18.80
2022-09-23T21:50:08.590Z,21.27
2022-09-23T21:53:11.238Z,20.27
2022-09-23T21:56:20.475Z,23.10
2022-09-23T21:59:23.694Z,21.47
2022-09-23T22:02:27.935Z,22.53
2022-09-23T22:05:30.592Z,86.13
2022-09-23T22:08:36.834Z,40.40
2022-09-23T22:11:58.297Z,82.27
2022-09-23T22:15:01.423Z,220.97
2022-09-23T22:18:07.052Z,121.90
2022-09-23T22:21:09.961Z,12.03
2022-09-23T22:24:14.263Z,13.17
2022-09-23T22:27:18.941Z,44.83
2022-09-23T22:30:35.505Z,72.83
2022-09-23T22:33:39.562Z,65.60
2022-09-23T22:36:42.333Z,26.70
2022-09-23T22:39:45.679Z,24.73
2022-09-23T22:42:48.689Z,25.97
2022-09-23T22:45:52.441Z,72.37
2022-09-23T22:48:56.866Z,79.23
2022-09-23T22:51:59.725Z,35.23
2022-09-23T22:55:03.638Z,53.00
2022-09-23T22:58:27.559Z,55.10
2022-09-23T23:01:30.356Z,30.77
2022-09-23T23:04:34.943Z,24.83
2022-09-23T23:07:37.608Z,18.80
2022-09-23T23:10:40.902Z,13.73
2022-09-23T23:13:44.579Z,9.70
2022-09-23T23:16:47.702Z,13.70
2022-09-23T23:19:51.708Z,9.33
2022-09-23T23:22:54.696Z,9.53
2022-09-23T23:25:57.324Z,12.53
2022-09-23T23:29:01.340Z,8.63
2022-09-23T23:32:05.131Z,14.23
2022-09-23T23:35:10.267Z,17.07
2022-09-23T23:38:12.915Z,10.40
2022-09-23T23:41:17.792Z,13.13
2022-09-23T23:44:20.451Z,12.43
2022-09-23T23:47:23.588Z,11.10
2022-09-23T23:50:27.599Z,9.00
2022-09-23T23:53:33.611Z,8.83
2022-09-23T23:56:36.547Z,12.83
2022-09-23T23:59:39.208Z,9.07
